createdAt,value
2022-09-30T00:02:18.820Z,100.00
2022-09-30T00:06:20.864Z,100.00
2022-09-30T00:10:22.614Z,100.00
2022-09-30T00:14:24.414Z,100.00
2022-09-30T00:18:27.196Z,100.00
2022-09-30T00:22:28.587Z,100.00
2022-09-30T00:26:30.054Z,100.00
2022-09-30T00:30:31.453Z,100.00
2022-09-30T00:34:32.956Z,100.00
2022-09-30T00:38:34.365Z,100.00
2022-09-30T00:42:35.777Z,100.00
2022-09-30T00:46:44.277Z,100.00
2022-09-30T00:50:55.554Z,100.00
2022-09-30T00:54:59.350Z,100.00
2022-09-30T00:59:06.854Z,100.00
2022-09-30T01:03:08.331Z,100.00
2022-09-30T01:07:10.810Z,100.00
2022-09-30T01:11:12.260Z,100.00
2022-09-30T01:15:13.744Z,100.00
2022-09-30T01:19:45.628Z,100.00
2022-09-30T01:23:57.369Z,100.00
2022-09-30T01:28:04.715Z,100.00
2022-09-30T01:32:18.126Z,100.00
2022-09-30T01:36:38.281Z,100.00
2022-09-30T01:40:45.527Z,100.00
2022-09-30T01:45:03.031Z,100.00
2022-09-30T01:49:34.261Z,100.00
2022-09-30T01:53:44.242Z,100.00
2022-09-30T01:57:45.507Z,100.00
2022-09-30T02:01:54.113Z,100.00
2022-09-30T02:06:02.356Z,100.00
2022-09-30T02:10:14.227Z,100.00
2022-09-30T02:14:41.501Z,100.00
2022-09-30T02:18:47.375Z,100.00
2022-09-30T02:22:52.273Z,100.00
2022-09-30T02:26:56.963Z,100.00
2022-09-30T02:31:02.108Z,100.00
2022-09-30T02:35:12.081Z,100.00
2022-09-30T02:39:28.557Z,100.00
2022-09-30T02:43:31.452Z,100.00
2022-09-30T02:48:05.007Z,100.00
2022-09-30T02:52:29.974Z,100.00
2022-09-30T02:56:59.593Z,100.00
2022-09-30T03:01:01.065Z,100.00
2022-09-30T03:05:03.452Z,100.00
2022-09-30T03:09:05.170Z,100.00
2022-09-30T03:13:34.484Z,100.00
2022-09-30T03:18:02.101Z,100.00
2022-09-30T03:22:06.423Z,100.00
2022-09-30T03:26:16.569Z,100.00
2022-09-30T03:30:24.452Z,100.00
2022-09-30T03:34:42.671Z,100.00
2022-09-30T03:38:53.415Z,100.00
2022-09-30T03:43:06.019Z,100.00
2022-09-30T03:47:11.113Z,100.00
2022-09-30T03:51:13.496Z,100.00
2022-09-30T03:55:15.581Z,100.00
2022-09-30T03:59:26.123Z,100.00
2022-09-30T04:03:28.460Z,100.00
2022-09-30T04:07:29.987Z,100.00
2022-09-30T04:11:31.370Z,100.00
2022-09-30T04:15:32.713Z,100.00
2022-09-30T04:19:40.133Z,100.00
2022-09-30T04:23:42.595Z,100.00
2022-09-30T04:27:43.976Z,100.00
2022-09-30T04:31:45.394Z,100.00
2022-09-30T04:35:46.757Z,100.00
2022-09-30T04:39:48.148Z,100.00
2022-09-30T04:43:49.569Z,100.00
2022-09-30T04:47:50.940Z,100.00
2022-09-30T04:51:52.275Z,100.00
2022-09-30T04:55:59.739Z,100.00
2022-09-30T05:00:01.987Z,100.00
2022-09-30T05:04:03.475Z,100.00
2022-09-30T05:08:05.487Z,100.00
2022-09-30T05:12:07.160Z,100.00
2022-09-30T05:16:09.994Z,100.00
2022-09-30T05:20:11.512Z,100.00
2022-09-30T05:24:13.581Z,100.00
2022-09-30T05:28:14.993Z,100.00
2022-09-30T05:32:16.638Z,100.00
2022-09-30T05:36:18.231Z,100.00
2022-09-30T05:40:19.689Z,100.00
2022-09-30T05:44:21.439Z,100.00
2022-09-30T05:48:24.099Z,100.00
2022-09-30T05:52:25.971Z,100.00
2022-09-30T05:56:27.367Z,100.00
2022-09-30T06:00:29.142Z,100.00
2022-09-30T06:04:30.830Z,100.00
2022-09-30T06:08:32.263Z,100.00
2022-09-30T06:12:36.161Z,100.00
2022-09-30T06:16:37.585Z,100.00
2022-09-30T06:20:39.093Z,100.00
2022-09-30T06:24:41.614Z,100.00
2022-09-30T06:28:44.675Z,100.00
2022-09-30T06:32:46.107Z,100.00
2022-09-30T06:36:47.462Z,100.00
2022-09-30T06:40:50.117Z,100.00
2022-09-30T06:44:53.451Z,100.00
2022-09-30T06:49:10.705Z,100.00
2022-09-30T06:53:14.826Z,100.00
2022-09-30T06:57:16.669Z,100.00
2022-09-30T07:01:18.150Z,100.00
2022-09-30T07:05:20.062Z,100.00
2022-09-30T07:09:21.493Z,100.00
2022-09-30T07:13:23.098Z,100.00
2022-09-30T07:17:24.498Z,100.00
2022-09-30T07:21:25.946Z,100.00
2022-09-30T07:25:27.479Z,100.00
2022-09-30T07:29:36.664Z,100.00
2022-09-30T07:33:53.720Z,100.00
2022-09-30T07:37:55.084Z,100.00
2022-09-30T07:41:56.658Z,100.00
2022-09-30T07:45:58.575Z,100.00
2022-09-30T07:50:00.443Z,100.00
2022-09-30T07:54:09.303Z,100.00
2022-09-30T07:58:10.991Z,100.00
2022-09-30T08:02:17.893Z,100.00
2022-09-30T08:06:21.437Z,100.00
2022-09-30T08:10:22.861Z,100.00
2022-09-30T08:14:26.664Z,100.00
2022-09-30T08:18:28.726Z,100.00
2022-09-30T08:22:30.111Z,100.00
2022-09-30T08:26:31.665Z,100.00
2022-09-30T08:30:37.581Z,100.00
2022-09-30T08:34:39.041Z,100.00
2022-09-30T08:38:40.981Z,100.00
2022-09-30T08:43:21.245Z,100.00
2022-09-30T08:47:37.979Z,100.00
2022-09-30T08:51:45.236Z,100.00
2022-09-30T08:55:46.795Z,100.00
2022-09-30T08:59:52.768Z,100.00
2022-09-30T09:03:55.220Z,100.00
2022-09-30T09:08:19.148Z,100.00
2022-09-30T09:12:41.354Z,100.00
2022-09-30T09:16:55.300Z,99.91
2022-09-30T09:20:59.805Z,95.03
2022-09-30T09:25:02.794Z,92.56
2022-09-30T09:29:43.402Z,92.74
2022-09-30T09:33:45.224Z,90.34
2022-09-30T09:38:18.629Z,89.17
2022-09-30T09:42:31.504Z,88.99
2022-09-30T09:46:41.790Z,88.62
2022-09-30T09:51:03.885Z,84.24
2022-09-30T09:55:05.832Z,85.66
2022-09-30T09:59:18.025Z,82.62
2022-09-30T10:03:25.147Z,82.54
2022-09-30T10:07:29.001Z,79.66
2022-09-30T10:11:30.978Z,76.92
2022-09-30T10:15:33.524Z,75.48
2022-09-30T10:19:35.251Z,73.66
2022-09-30T10:23:40.759Z,73.60
2022-09-30T10:27:59.271Z,71.99
2022-09-30T10:32:08.332Z,69.02
2022-09-30T10:36:15.266Z,63.40
2022-09-30T10:40:18.791Z,66.81
2022-09-30T10:44:23.501Z,62.38
2022-09-30T10:48:27.413Z,61.12
2022-09-30T10:52:32.318Z,59.55
2022-09-30T10:56:41.065Z,62.71
2022-09-30T11:00:43.842Z,58.62
2022-09-30T11:04:52.652Z,59.12
2022-09-30T11:09:00.638Z,56.22
2022-09-30T11:13:02.014Z,56.31
2022-09-30T11:17:28.690Z,57.76
2022-09-30T11:21:46.070Z,56.45
2022-09-30T11:25:50.194Z,53.55
2022-09-30T11:30:00.722Z,59.64
2022-09-30T11:34:20.986Z,54.21
2022-09-30T11:39:02.043Z,52.03
2022-09-30T11:43:08.452Z,56.17
2022-09-30T11:47:31.238Z,56.58
2022-09-30T11:51:42.160Z,55.25
2022-09-30T11:55:59.392Z,53.35
2022-09-30T12:00:28.496Z,51.14
2022-09-30T12:04:39.411Z,49.98
2022-09-30T12:08:51.760Z,51.51
2022-09-30T12:12:58.845Z,55.00
2022-09-30T12:17:03.429Z,59.93
2022-09-30T12:21:23.225Z,56.16
2022-09-30T12:25:28.262Z,52.97
2022-09-30T12:30:01.092Z,52.22
2022-09-30T12:34:08.308Z,50.89
2022-09-30T12:38:27.946Z,46.66
2022-09-30T12:42:29.210Z,47.69
2022-09-30T12:46:58.509Z,45.44
2022-09-30T12:51:00.855Z,46.60
2022-09-30T12:55:08.945Z,46.67
2022-09-30T12:59:15.235Z,48.27
2022-09-30T13:03:18.361Z,49.04
2022-09-30T13:07:23.256Z,46.53
2022-09-30T13:12:03.218Z,44.21
2022-09-30T13:16:06.490Z,45.29
2022-09-30T13:20:47.148Z,47.03
2022-09-30T13:24:57.886Z,44.69
2022-09-30T13:29:02.644Z,47.42
2022-09-30T13:33:03.993Z,46.02
2022-09-30T13:37:05.847Z,45.75
2022-09-30T13:41:25.968Z,44.30
2022-09-30T13:45:39.376Z,45.64
2022-09-30T13:49:49.266Z,44.47
2022-09-30T13:53:55.502Z,46.61
2022-09-30T13:58:09.006Z,44.99
2022-09-30T14:02:31.436Z,46.83
2022-09-30T14:07:16.343Z,46.90
2022-09-30T14:11:54.286Z,48.09
2022-09-30T14:16:06.301Z,48.77
2022-09-30T14:20:38.881Z,49.17
2022-09-30T14:24:40.832Z,51.63
2022-09-30T14:28:50.433Z,52.17
2022-09-30T14:32:58.394Z,54.02
2022-09-30T14:36:59.825Z,53.66
2022-09-30T14:41:08.226Z,49.72
2022-09-30T14:45:14.099Z,48.10
2022-09-30T14:49:34.230Z,46.48
2022-09-30T14:53:39.980Z,47.65
2022-09-30T14:57:43.734Z,49.04
2022-09-30T15:01:51.337Z,47.88
2022-09-30T15:05:53.390Z,50.56
2022-09-30T15:10:01.745Z,53.14
2022-09-30T15:14:07.605Z,55.58
2022-09-30T15:18:27.440Z,56.49
2022-09-30T15:22:29.226Z,58.74
2022-09-30T15:26:32.209Z,59.45
2022-09-30T15:30:33.776Z,58.42
2022-09-30T15:34:35.214Z,57.39
2022-09-30T15:38:38.133Z,57.01
2022-09-30T15:42:45.302Z,54.03
2022-09-30T15:47:03.110Z,56.39
2022-09-30T15:51:42.345Z,59.77
2022-09-30T15:55:46.137Z,61.97
2022-09-30T15:59:59.937Z,61.74
2022-09-30T16:04:16.467Z,61.75
2022-09-30T16:08:24.573Z,62.30
2022-09-30T16:12:31.379Z,63.11
2022-09-30T16:16:35.702Z,63.88
2022-09-30T16:20:37.433Z,64.99
2022-09-30T16:24:42.317Z,65.09
2022-09-30T16:28:44.052Z,65.83
2022-09-30T16:32:49.435Z,66.44
2022-09-30T16:36:52.607Z,66.65
2022-09-30T16:40:54.014Z,68.47
2022-09-30T16:44:55.906Z,70.76
2022-09-30T16:48:57.299Z,72.33
2022-09-30T16:52:58.791Z,74.24
2022-09-30T16:57:03.105Z,73.63
2022-09-30T17:01:04.666Z,78.32
2022-09-30T17:05:06.709Z,79.64
2022-09-30T17:09:08.113Z,79.19
2022-09-30T17:13:09.936Z,79.20
2022-09-30T17:17:13.738Z,80.88
2022-09-30T17:21:20.035Z,84.08
2022-09-30T17:25:21.539Z,85.73
2022-09-30T17:29:41.761Z,87.36
2022-09-30T17:33:43.687Z,89.56
2022-09-30T17:37:46.523Z,90.46
2022-09-30T17:42:06.656Z,90.56
2022-09-30T17:46:08.225Z,90.69
2022-09-30T17:50:10.115Z,89.88
2022-09-30T17:54:11.655Z,93.20
2022-09-30T17:58:14.007Z,92.79
2022-09-30T18:02:17.590Z,92.56
2022-09-30T18:06:22.955Z,92.09
2022-09-30T18:10:25.358Z,94.11
2022-09-30T18:14:35.192Z,94.40
2022-09-30T18:18:36.643Z,95.19
2022-09-30T18:22:38.221Z,95.11
2022-09-30T18:26:39.724Z,96.62
2022-09-30T18:30:41.259Z,97.65
2022-09-30T18:34:42.689Z,98.60
2022-09-30T18:38:44.054Z,99.67
2022-09-30T18:42:46.097Z,100.00
2022-09-30T18:46:47.509Z,100.00
2022-09-30T18:50:51.271Z,100.00
2022-09-30T18:54:52.749Z,100.00
2022-09-30T18:58:54.297Z,100.00
2022-09-30T19:02:56.804Z,100.00
2022-09-30T19:06:58.227Z,100.00
2022-09-30T19:11:00.077Z,100.00
2022-09-30T19:15:17.243Z,100.00
2022-09-30T19:19:20.416Z,100.00
2022-09-30T19:23:22.083Z,100.00
2022-09-30T19:27:26.151Z,100.00
2022-09-30T19:31:28.368Z,100.00
2022-09-30T19:35:38.730Z,100.00
2022-09-30T19:39:45.914Z,100.00
2022-09-30T19:43:50.859Z,100.00
2022-09-30T19:47:52.298Z,100.00
2022-09-30T19:51:53.718Z,100.00
2022-09-30T19:56:02.806Z,100.00
2022-09-30T20:00:05.562Z,100.00
2022-09-30T20:04:08.139Z,100.00
2022-09-30T20:08:09.613Z,100.00
2022-09-30T20:12:15.207Z,100.00
2022-09-30T20:16:18.362Z,100.00
2022-09-30T20:20:45.949Z,100.00
2022-09-30T20:24:47.695Z,100.00
2022-09-30T20:28:49.050Z,100.00
2022-09-30T20:32:50.414Z,100.00
2022-09-30T20:36:51.814Z,100.00
2022-09-30T20:41:01.981Z,100.00
2022-09-30T20:45:06.090Z,100.00
2022-09-30T20:49:07.724Z,100.00
2022-09-30T20:53:11.512Z,100.00
2022-09-30T20:57:12.905Z,100.00
2022-09-30T21:01:19.950Z,100.00
2022-09-30T21:05:21.464Z,100.00
2022-09-30T21:09:22.887Z,100.00
2022-09-30T21:13:24.517Z,100.00
2022-09-30T21:17:25.892Z,100.00
2022-09-30T21:21:27.329Z,100.00
2022-09-30T21:25:32.422Z,100.00
2022-09-30T21:29:33.827Z,100.00
2022-09-30T21:33:36.025Z,100.00
2022-09-30T21:37:37.794Z,100.00
2022-09-30T21:41:40.648Z,100.00
2022-09-30T21:45:42.447Z,100.00
2022-09-30T21:49:44.001Z,100.00
2022-09-30T21:53:46.920Z,100.00
2022-09-30T21:57:48.383Z,100.00
2022-09-30T22:01:50.239Z,100.00
2022-09-30T22:05:53.294Z,100.00
2022-09-30T22:09:54.769Z,100.00
2022-09-30T22:13:58.123Z,100.00
2022-09-30T22:17:59.586Z,100.00
2022-09-30T22:22:01.657Z,100.00
2022-09-30T22:26:22.390Z,100.00
2022-09-30T22:30:23.834Z,100.00
2022-09-30T22:34:43.502Z,100.00
2022-09-30T22:38:46.081Z,100.00
2022-09-30T22:42:48.004Z,100.00
2022-09-30T22:46:50.593Z,100.00
2022-09-30T22:50:51.990Z,100.00
2022-09-30T22:54:53.887Z,100.00
2022-09-30T22:58:55.425Z,100.00
2022-09-30T23:02:56.828Z,100.00
2022-09-30T23:06:58.347Z,100.00
2022-09-30T23:11:03.141Z,100.00
2022-09-30T23:15:05.110Z,100.00
2022-09-30T23:19:06.573Z,100.00
2022-09-30T23:23:07.984Z,100.00
2022-09-30T23:27:09.371Z,100.00
2022-09-30T23:31:15.910Z,100.00
2022-09-30T23:35:17.385Z,100.00
2022-09-30T23:39:20.803Z,100.00
2022-09-30T23:43:22.302Z,100.00
2022-09-30T23:47:23.715Z,100.00
2022-09-30T23:51:25.154Z,100.00
2022-09-30T23:55:27.945Z,100.00
2022-09-30T23:59:30.183Z,100.00
